Time;durP1;ratioP1;P1;durP2;ratioP2;P2;SDS_P1;SDS_P2;PMS_P1;PMS_P2;Temp;Humidity;BMP_temperature;BMP_pressure;BME280_temperature;BME280_humidity;BME280_pressure;Samples;Min_cycle;Max_cycle;Signal;HPM_P1;HPM_P2
2024/03/13 00:02:11;;;;;;;8.53;7.67;;;;;;;;;;6287238;22;20435;-83
2024/03/13 00:04:59;;;;;;;10.40;7.00;;;;;;;;;;6283952;22;20414;-86
2024/03/13 00:08:01;;;;;;;10.60;6.37;;;;;;;;;;6284202;22;20450;-88
2024/03/13 00:10:39;;;;;;;8.10;5.63;;;;;;;;;;6229776;22;20795;-86
2024/03/13 00:13:42;;;;;;;9.27;6.40;;;;;;;;;;6270844;22;20562;-88
2024/03/13 00:16:27;;;;;;;8.50;5.97;;;;;;;;;;6275791;22;20461;-86
2024/03/13 00:19:03;;;;;;;8.40;6.00;;;;;;;;;;6277812;22;20426;-87
2024/03/13 00:21:55;;;;;;;8.87;6.60;;;;;;;;;;6278024;22;20471;-86
2024/03/13 00:24:42;;;;;;;8.53;5.30;;;;;;;;;;6275151;22;20430;-85
2024/03/13 00:34:53;;;;;;;8.23;5.73;;;;;;;;;;6253700;22;20406;-86
2024/03/13 00:37:30;;;;;;;7.37;5.30;;;;;;;;;;6278836;22;20466;-87
2024/03/13 00:40:13;;;;;;;6.80;5.70;;;;;;;;;;6278445;22;20478;-88
2024/03/13 00:43:15;;;;;;;7.63;5.47;;;;;;;;;;6265989;22;20387;-86
2024/03/13 00:45:55;;;;;;;8.20;5.20;;;;;;;;;;6276538;22;20950;-90
2024/03/13 00:48:47;;;;;;;12.07;6.60;;;;;;;;;;6274542;22;20435;-88
2024/03/13 00:55:03;;;;;;;9.77;6.20;;;;;;;;;;6116196;23;20491;-88
2024/03/13 00:57:31;;;;;;;8.13;5.70;;;;;;;;;;6119080;23;20455;-85
2024/03/13 01:00:44;;;;;;;7.20;5.30;;;;;;;;;;6217811;22;20438;-85
2024/03/13 01:03:31;;;;;;;8.37;5.60;;;;;;;;;;6271005;22;20403;-87
2024/03/13 01:13:34;;;;;;;7.00;5.20;;;;;;;;;;6147673;23;20414;-87
2024/03/13 01:16:25;;;;;;;7.50;5.23;;;;;;;;;;6162357;22;20634;-89
2024/03/13 01:19:29;;;;;;;8.27;5.77;;;;;;;;;;6270360;22;20896;-88
2024/03/13 01:22:05;;;;;;;8.77;5.70;;;;;;;;;;6272251;22;20403;-87
2024/03/13 01:24:58;;;;;;;7.37;5.27;;;;;;;;;;6278612;22;20399;-87
2024/03/13 01:27:48;;;;;;;6.43;5.07;;;;;;;;;;6281860;22;20450;-87
2024/03/13 01:31:06;;;;;;;7.37;4.60;;;;;;;;;;6281622;22;20411;-87
2024/03/13 01:33:48;;;;;;;7.03;5.00;;;;;;;;;;6277715;22;20453;-88
2024/03/13 01:39:54;;;;;;;;;;;;;;;;;;;;;
2024/03/13 01:57:14;;;;;;;6.57;4.77;;;;;;;;;;6306462;22;20471;-90
2024/03/13 01:59:49;;;;;;;6.30;4.10;;;;;;;;;;6284670;22;20428;-87
2024/03/13 02:02:29;;;;;;;5.40;4.00;;;;;;;;;;6295186;22;20690;-86
2024/03/13 02:05:24;;;;;;;5.83;4.47;;;;;;;;;;6298822;22;20406;-88
2024/03/13 02:07:58;;;;;;;5.67;4.07;;;;;;;;;;6289781;22;20888;-88
2024/03/13 02:10:40;;;;;;;5.73;3.80;;;;;;;;;;6287359;22;20399;-89
2024/03/13 02:13:28;;;;;;;3.80;3.37;;;;;;;;;;6287354;22;20405;-88
2024/03/13 02:16:11;;;;;;;;;;;;;;;;;;;;;
2024/03/13 02:19:08;;;;;;;3.97;3.57;;;;;;;;;;6243871;22;20416;-88
2024/03/13 02:22:21;;;;;;;4.70;3.60;;;;;;;;;;6303355;22;20489;-88
2024/03/13 02:25:11;;;;;;;5.00;4.20;;;;;;;;;;6302700;22;20405;-89
2024/03/13 02:27:58;;;;;;;3.17;2.70;;;;;;;;;;6295259;22;20931;-87
2024/03/13 02:30:44;;;;;;;4.40;3.60;;;;;;;;;;6283168;22;20399;-87
2024/03/13 02:33:16;;;;;;;3.50;3.20;;;;;;;;;;6290335;22;20425;-88
2024/03/13 02:36:01;;;;;;;4.67;3.30;;;;;;;;;;6289121;22;20414;-89
2024/03/13 02:38:32;;;;;;;4.10;3.40;;;;;;;;;;6304533;22;20459;-90
2024/03/13 02:46:59;;;;;;;3.63;3.30;;;;;;;;;;6285791;22;20446;-89
2024/03/13 02:49:38;;;;;;;3.97;3.57;;;;;;;;;;6186885;23;20902;-88
2024/03/13 02:52:26;;;;;;;4.57;3.10;;;;;;;;;;6261113;22;20403;-88
2024/03/13 02:55:49;;;;;;;4.47;3.30;;;;;;;;;;6276794;22;20704;-89
2024/03/13 03:02:12;;;;;;;3.77;3.10;;;;;;;;;;6149918;23;20505;-88
2024/03/13 03:04:46;;;;;;;3.83;3.10;;;;;;;;;;6126589;23;20402;-89
2024/03/13 03:07:20;;;;;;;3.67;3.23;;;;;;;;;;6229301;22;20448;-87
2024/03/13 03:09:58;;;;;;;3.43;3.13;;;;;;;;;;6281225;22;20410;-88
2024/03/13 03:12:37;;;;;;;2.80;2.53;;;;;;;;;;6279100;22;20421;-88
2024/03/13 03:15:23;;;;;;;5.60;3.50;;;;;;;;;;6254275;22;20390;-87
2024/03/13 03:17:58;;;;;;;3.87;2.70;;;;;;;;;;6278511;22;20461;-89
2024/03/13 03:20:31;;;;;;;4.00;3.20;;;;;;;;;;6276948;22;20422;-88
2024/03/13 03:23:03;;;;;;;3.47;3.13;;;;;;;;;;6279916;22;20420;-88
2024/03/13 03:25:44;;;;;;;2.90;2.60;;;;;;;;;;6282434;22;20813;-87
2024/03/13 03:28:41;;;;;;;3.37;3.07;;;;;;;;;;6286209;22;20442;-87
2024/03/13 03:31:35;;;;;;;3.53;2.90;;;;;;;;;;6272807;22;20918;-88
2024/03/13 03:34:12;;;;;;;3.30;2.43;;;;;;;;;;6250815;22;20409;-87
2024/03/13 03:36:56;;;;;;;4.93;3.00;;;;;;;;;;6281073;22;20496;-85
2024/03/13 03:43:30;;;;;;;4.63;3.03;;;;;;;;;;6292580;22;20420;-86
2024/03/13 03:46:04;;;;;;;5.20;2.83;;;;;;;;;;6280833;22;20487;-88
2024/03/13 03:48:38;;;;;;;3.50;3.20;;;;;;;;;;6289137;22;20449;-87
2024/03/13 03:51:27;;;;;;;3.20;2.90;;;;;;;;;;6285343;22;20410;-86
2024/03/13 03:54:11;;;;;;;3.10;2.80;;;;;;;;;;6287462;22;20406;-89
2024/03/13 03:57:11;;;;;;;3.57;2.93;;;;;;;;;;6290651;22;20408;-88
2024/03/13 03:59:41;;;;;;;3.37;3.07;;;;;;;;;;6284849;22;20398;-88
2024/03/13 04:03:09;;;;;;;2.70;2.50;;;;;;;;;;6310213;22;20402;-86
2024/03/13 04:05:56;;;;;;;3.40;3.00;;;;;;;;;;6284008;22;20491;-87
2024/03/13 04:08:50;;;;;;;3.00;2.70;;;;;;;;;;6286498;22;20446;-85
2024/03/13 04:11:52;;;;;;;3.27;2.83;;;;;;;;;;6287217;22;20409;-89
2024/03/13 04:14:32;;;;;;;2.93;2.63;;;;;;;;;;6286428;22;20493;-88
2024/03/13 04:17:19;;;;;;;;;;;;;;;;;;;;;
2024/03/13 04:23:32;;;;;;;;;;;;;;;;;;;;;
2024/03/13 04:26:19;;;;;;;3.10;2.60;;;;;;;;;;6283248;22;20431;-88
2024/03/13 04:28:59;;;;;;;2.80;2.60;;;;;;;;;;6274740;22;20804;-89
2024/03/13 04:31:59;;;;;;;;;;;;;;;;;;;;;
2024/03/13 04:35:00;;;;;;;4.07;3.30;;;;;;;;;;6170164;22;20410;-86
2024/03/13 04:37:37;;;;;;;5.53;3.27;;;;;;;;;;6278441;22;20977;-88
2024/03/13 04:40:28;;;;;;;3.50;3.20;;;;;;;;;;6280828;22;20490;-87
2024/03/13 04:43:16;;;;;;;3.53;3.00;;;;;;;;;;6250279;22;20457;-88
2024/03/13 04:46:22;;;;;;;4.40;3.10;;;;;;;;;;6280584;22;20466;-86
2024/03/13 04:49:03;;;;;;;3.40;3.10;;;;;;;;;;6281922;22;20446;-85
2024/03/13 04:54:20;;;;;;;2.90;2.50;;;;;;;;;;6272688;22;20425;-86
2024/03/13 04:59:29;;;;;;;2.77;2.57;;;;;;;;;;6259398;22;20450;-89
2024/03/13 05:02:04;;;;;;;3.03;2.83;;;;;;;;;;6267096;22;20410;-90
2024/03/13 05:05:09;;;;;;;2.70;2.50;;;;;;;;;;6250124;23;20412;-88
2024/03/13 05:07:53;;;;;;;4.23;2.60;;;;;;;;;;6219959;23;20445;-87
2024/03/13 05:10:35;;;;;;;3.03;2.83;;;;;;;;;;6221346;23;20459;-86
2024/03/13 05:13:23;;;;;;;2.93;2.73;;;;;;;;;;6201126;23;20397;-87
2024/03/13 05:16:33;;;;;;;3.03;2.80;;;;;;;;;;6221815;23;20413;-85
2024/03/13 05:22:37;;;;;;;2.80;2.60;;;;;;;;;;6237027;23;20329;-88
2024/03/13 05:25:30;;;;;;;3.33;2.50;;;;;;;;;;6228261;22;20420;-89
2024/03/13 05:31:14;;;;;;;3.63;2.70;;;;;;;;;;6247486;22;20453;-88
2024/03/13 05:34:10;;;;;;;3.80;3.30;;;;;;;;;;6295927;22;20931;-87
2024/03/13 05:36:49;;;;;;;2.30;2.13;;;;;;;;;;6287231;22;20442;-85
2024/03/13 05:39:52;;;;;;;;;;;;;;;;;;;;;
2024/03/13 05:42:32;;;;;;;3.40;3.10;;;;;;;;;;6286769;22;20441;-88
2024/03/13 05:45:09;;;;;;;2.80;2.60;;;;;;;;;;6282440;22;20414;-87
2024/03/13 05:48:05;;;;;;;2.50;2.30;;;;;;;;;;6284440;22;20470;-89
2024/03/13 05:50:53;;;;;;;3.43;3.13;;;;;;;;;;6283886;22;20399;-89
2024/03/13 05:53:30;;;;;;;3.77;3.30;;;;;;;;;;6283802;22;20809;-88
2024/03/13 05:56:17;;;;;;;4.40;3.33;;;;;;;;;;6292217;22;20463;-89
2024/03/13 05:59:05;;;;;;;3.70;3.40;;;;;;;;;;6290617;22;20662;-89
2024/03/13 06:01:49;;;;;;;3.90;3.50;;;;;;;;;;6280130;22;20411;-89
2024/03/13 06:04:36;;;;;;;4.83;4.30;;;;;;;;;;6276568;22;20478;-89
2024/03/13 06:07:18;;;;;;;6.27;3.90;;;;;;;;;;6284884;22;20437;-88
2024/03/13 06:10:10;;;;;;;4.60;3.40;;;;;;;;;;6284117;22;20414;-88
2024/03/13 06:13:01;;;;;;;4.47;4.00;;;;;;;;;;6282221;22;20421;-89
2024/03/13 06:16:15;;;;;;;4.00;3.60;;;;;;;;;;6281552;22;20426;-88
2024/03/13 06:18:59;;;;;;;3.87;3.40;;;;;;;;;;6283822;22;20403;-88
2024/03/13 06:22:00;;;;;;;3.70;3.40;;;;;;;;;;6284142;22;20443;-88
2024/03/13 06:24:50;;;;;;;5.03;4.53;;;;;;;;;;6280539;22;20431;-88
2024/03/13 06:27:36;;;;;;;3.77;3.47;;;;;;;;;;6282542;22;20944;-87
2024/03/13 06:30:37;;;;;;;4.03;3.50;;;;;;;;;;6283787;22;20415;-87
2024/03/13 06:33:16;;;;;;;3.73;3.40;;;;;;;;;;6283385;22;20407;-88
2024/03/13 06:36:01;;;;;;;3.77;3.47;;;;;;;;;;6281470;22;20457;-88
2024/03/13 06:38:48;;;;;;;5.43;4.30;;;;;;;;;;6283900;22;20426;-87
2024/03/13 06:41:32;;;;;;;5.57;4.10;;;;;;;;;;6282307;22;20425;-89
2024/03/13 06:44:20;;;;;;;5.20;4.30;;;;;;;;;;6264817;22;20427;-86
2024/03/13 06:46:53;;;;;;;5.87;4.23;;;;;;;;;;6279953;22;21029;-89
2024/03/13 06:49:32;;;;;;;4.37;3.97;;;;;;;;;;6278771;22;20443;-89
2024/03/13 06:52:15;;;;;;;6.57;4.40;;;;;;;;;;6281404;22;20509;-87
2024/03/13 06:55:28;;;;;;;4.50;4.00;;;;;;;;;;6274425;22;20505;-88
2024/03/13 06:58:32;;;;;;;;;;;;;;;;;;;;;
2024/03/13 07:01:27;;;;;;;3.83;3.43;;;;;;;;;;6267258;22;20429;-86
2024/03/13 07:04:42;;;;;;;4.20;3.80;;;;;;;;;;6284250;22;20399;-87
2024/03/13 07:10:59;;;;;;;4.10;3.80;;;;;;;;;;6286526;22;20412;-88
2024/03/13 07:14:04;;;;;;;4.53;4.13;;;;;;;;;;6274278;22;20411;-88
2024/03/13 07:17:30;;;;;;;4.43;3.97;;;;;;;;;;6292760;22;20694;-87
2024/03/13 07:27:27;;;;;;;4.63;4.23;;;;;;;;;;6225563;22;20484;-87
2024/03/13 07:33:16;;;;;;;6.53;4.50;;;;;;;;;;6284451;22;20407;-89
2024/03/13 07:36:11;;;;;;;;;;;;;;;;;;;;;
2024/03/13 07:42:47;;;;;;;;;;;;;;;;;;;;;
2024/03/13 08:00:38;;;;;;;5.13;4.40;;;;;;;;;;6277944;22;20412;-88
2024/03/13 08:03:48;;;;;;;5.50;3.77;;;;;;;;;;6256079;22;20403;-87
2024/03/13 08:06:38;;;;;;;4.00;3.60;;;;;;;;;;6282653;22;20439;-87
2024/03/13 08:09:51;;;;;;;4.07;2.87;;;;;;;;;;6280871;22;20410;-88
2024/03/13 08:12:40;;;;;;;5.50;3.03;;;;;;;;;;6281321;22;20448;-87
2024/03/13 08:18:17;;;;;;;4.60;3.50;;;;;;;;;;6285121;22;20459;-87
2024/03/13 08:23:56;;;;;;;4.20;2.70;;;;;;;;;;6263794;22;20431;-90
2024/03/13 08:26:50;;;;;;;3.90;3.00;;;;;;;;;;6238486;23;20474;-88
2024/03/13 08:29:42;;;;;;;4.17;3.00;;;;;;;;;;6250835;23;20419;-84
2024/03/13 08:32:33;;;;;;;4.10;3.00;;;;;;;;;;6228486;23;20364;-86
2024/03/13 08:46:03;;;;;;;6.10;2.80;;;;;;;;;;6271600;22;20439;-88
2024/03/13 08:48:58;;;;;;;4.47;2.87;;;;;;;;;;6284116;22;20435;-88
2024/03/13 08:51:53;;;;;;;3.87;2.50;;;;;;;;;;6283000;22;20383;-89
2024/03/13 08:54:51;;;;;;;3.90;2.80;;;;;;;;;;6281159;22;20371;-88
2024/03/13 08:58:00;;;;;;;3.50;2.80;;;;;;;;;;6263096;22;20718;-88
2024/03/13 09:04:25;;;;;;;5.10;3.10;;;;;;;;;;6280606;22;20411;-86
2024/03/13 09:12:46;;;;;;;4.70;3.00;;;;;;;;;;6291362;22;20451;-88
2024/03/13 09:18:41;;;;;;;6.50;3.70;;;;;;;;;;6249401;22;20441;-88
2024/03/13 09:21:49;;;;;;;5.53;3.40;;;;;;;;;;6261420;22;20466;-88
2024/03/13 09:24:36;;;;;;;4.50;3.60;;;;;;;;;;6224153;23;20479;-87
2024/03/13 09:27:31;;;;;;;5.37;4.20;;;;;;;;;;6216339;23;20429;-87
2024/03/13 09:30:38;;;;;;;4.97;3.40;;;;;;;;;;6216268;23;20450;-88
2024/03/13 09:34:09;;;;;;;;;;;;;;;;;;;;;
2024/03/13 09:37:20;;;;;;;3.57;2.50;;;;;;;;;;6219628;22;20471;-86
2024/03/13 09:40:32;;;;;;;4.00;3.20;;;;;;;;;;6249417;22;20423;-87
2024/03/13 09:43:36;;;;;;;6.23;2.80;;;;;;;;;;6261835;22;20407;-89
2024/03/13 09:49:16;;;;;;;5.30;3.60;;;;;;;;;;6255854;22;20474;-90
2024/03/13 09:52:18;;;;;;;4.57;2.93;;;;;;;;;;6252425;22;20407;-88
2024/03/13 09:54:47;;;;;;;2.40;1.97;;;;;;;;;;6261290;22;20407;-89
2024/03/13 10:08:46;;;;;;;3.40;1.93;;;;;;;;;;6205179;22;20470;-90
2024/03/13 10:11:21;;;;;;;2.40;2.20;;;;;;;;;;6239650;22;20462;-88
2024/03/13 10:14:11;;;;;;;3.53;3.20;;;;;;;;;;6242262;22;20439;-87
2024/03/13 10:16:52;;;;;;;1.80;1.57;;;;;;;;;;6237704;23;20458;-89
2024/03/13 10:19:53;;;;;;;;;;;;;;;;;;;;;
2024/03/13 10:22:45;;;;;;;3.17;2.30;;;;;;;;;;6243779;23;20449;-84
2024/03/13 10:26:02;;;;;;;;;;;;;;;;;;;;;
2024/03/13 10:28:52;;;;;;;2.30;1.70;;;;;;;;;;6234873;23;20451;-87
2024/03/13 10:35:26;;;;;;;4.60;2.73;;;;;;;;;;6237627;23;20486;-86
2024/03/13 10:38:10;;;;;;;3.33;1.90;;;;;;;;;;6216548;23;20736;-87
2024/03/13 10:41:07;;;;;;;1.87;1.73;;;;;;;;;;6220514;23;20549;-90
2024/03/13 10:51:24;;;;;;;1.90;1.23;;;;;;;;;;6115095;23;20403;-88
2024/03/13 10:54:39;;;;;;;;;;;;;;;;;;;;;
2024/03/13 10:58:00;;;;;;;3.77;1.60;;;;;;;;;;6247925;22;20519;-87
2024/03/13 11:00:49;;;;;;;1.60;1.30;;;;;;;;;;6223087;23;20434;-87
2024/03/13 11:03:36;;;;;;;1.80;1.70;;;;;;;;;;6219003;23;20414;-86
2024/03/13 11:06:14;;;;;;;3.10;2.23;;;;;;;;;;6219339;23;20447;-88
2024/03/13 11:09:05;;;;;;;1.87;1.77;;;;;;;;;;6220726;23;20501;-87
2024/03/13 11:15:29;;;;;;;3.47;1.83;;;;;;;;;;6265547;22;20444;-88
2024/03/13 11:18:35;;;;;;;1.70;1.60;;;;;;;;;;6236375;22;20434;-87
2024/03/13 11:21:40;;;;;;;2.50;2.30;;;;;;;;;;6226153;23;20400;-86
2024/03/13 11:24:31;;;;;;;3.77;2.40;;;;;;;;;;6219791;23;20486;-85
2024/03/13 11:27:35;;;;;;;4.17;3.20;;;;;;;;;;6231608;22;20424;-88
2024/03/13 11:30:15;;;;;;;5.33;2.70;;;;;;;;;;6220923;23;20463;-86
2024/03/13 11:33:02;;;;;;;4.50;2.23;;;;;;;;;;6241698;22;20419;-86
2024/03/13 11:35:40;;;;;;;7.13;5.57;;;;;;;;;;6238985;22;20424;-88
2024/03/13 11:38:20;;;;;;;3.60;2.27;;;;;;;;;;6237119;23;20462;-87
2024/03/13 11:40:58;;;;;;;2.60;2.17;;;;;;;;;;6249312;23;20408;-85
2024/03/13 11:44:14;;;;;;;2.77;2.50;;;;;;;;;;6252377;23;20434;-88
2024/03/13 11:47:00;;;;;;;2.20;2.00;;;;;;;;;;6138227;23;20428;-86
2024/03/13 11:49:45;;;;;;;5.43;2.20;;;;;;;;;;6187826;23;20980;-87
2024/03/13 11:52:17;;;;;;;2.60;2.40;;;;;;;;;;6225005;23;20412;-87
2024/03/13 11:58:30;;;;;;;3.53;2.47;;;;;;;;;;6238929;23;20424;-88
2024/03/13 12:01:12;;;;;;;2.50;2.30;;;;;;;;;;6189146;23;20510;-86
2024/03/13 12:03:58;;;;;;;2.73;2.27;;;;;;;;;;6227003;23;20408;-87
2024/03/13 12:09:38;;;;;;;2.37;2.17;;;;;;;;;;6223758;23;20472;-86
2024/03/13 12:12:50;;;;;;;3.10;2.80;;;;;;;;;;6200158;23;20393;-90
2024/03/13 12:15:40;;;;;;;2.67;2.20;;;;;;;;;;6193408;23;20436;-86
2024/03/13 12:18:16;;;;;;;2.93;2.00;;;;;;;;;;6182088;23;20753;-88
2024/03/13 12:21:01;;;;;;;5.23;3.77;;;;;;;;;;6218482;23;20427;-90
2024/03/13 12:23:45;;;;;;;2.73;2.50;;;;;;;;;;6192395;23;20817;-87
2024/03/13 12:26:33;;;;;;;2.80;2.23;;;;;;;;;;6203113;23;20433;-90
2024/03/13 12:29:29;;;;;;;2.13;1.93;;;;;;;;;;6196233;23;20830;-86
2024/03/13 12:32:13;;;;;;;2.50;1.90;;;;;;;;;;6194578;23;20393;-88
2024/03/13 12:35:21;;;;;;;3.33;2.10;;;;;;;;;;6214632;23;20417;-86
2024/03/13 12:37:57;;;;;;;2.93;2.73;;;;;;;;;;6184011;23;21082;-88
2024/03/13 12:40:49;;;;;;;2.23;2.03;;;;;;;;;;6220412;23;20421;-86
2024/03/13 12:43:25;;;;;;;2.67;2.20;;;;;;;;;;6195232;23;20417;-88
2024/03/13 12:46:23;;;;;;;2.83;2.00;;;;;;;;;;6205218;23;20432;-87
2024/03/13 12:49:08;;;;;;;2.60;2.40;;;;;;;;;;6116872;23;20494;-87
2024/03/13 12:55:20;;;;;;;;;;;;;;;;;;;;;
2024/03/13 13:01:28;;;;;;;3.90;2.20;;;;;;;;;;6092636;23;20407;-87
2024/03/13 13:04:28;;;;;;;5.70;4.50;;;;;;;;;;6136592;23;20771;-87
2024/03/13 13:07:30;;;;;;;4.50;2.77;;;;;;;;;;6166812;23;20438;-90
2024/03/13 13:11:04;;;;;;;2.23;2.03;;;;;;;;;;6139637;23;20444;-89
2024/03/13 13:13:48;;;;;;;3.20;2.23;;;;;;;;;;6118586;23;20418;-89
2024/03/13 13:16:56;;;;;;;2.77;2.57;;;;;;;;;;6132609;23;20452;-87
2024/03/13 13:33:22;;;;;;;4.80;3.30;;;;;;;;;;5998831;23;20449;-90
2024/03/13 13:36:22;;;;;;;3.97;2.77;;;;;;;;;;6028207;23;20422;-87
2024/03/13 13:38:59;;;;;;;3.90;3.07;;;;;;;;;;6046642;23;20441;-87
2024/03/13 13:44:54;;;;;;;4.33;3.00;;;;;;;;;;6066967;23;20413;-85
2024/03/13 13:58:12;;;;;;;3.17;2.20;;;;;;;;;;6243044;23;20408;-89
2024/03/13 14:17:04;;;;;;;2.90;2.70;;;;;;;;;;6278466;22;20553;-86
2024/03/13 14:19:45;;;;;;;5.43;4.37;;;;;;;;;;6249890;22;20407;-88
2024/03/13 14:22:52;;;;;;;3.57;3.17;;;;;;;;;;6286031;22;20391;-88
2024/03/13 14:25:51;;;;;;;6.43;5.50;;;;;;;;;;6266008;22;20983;-87
2024/03/13 14:28:40;;;;;;;3.73;3.43;;;;;;;;;;6186682;22;20775;-89
2024/03/13 14:38:05;;;;;;;2.60;2.40;;;;;;;;;;6190529;22;20392;-92
2024/03/13 14:41:10;;;;;;;2.90;2.70;;;;;;;;;;6276005;22;20374;-91
2024/03/13 14:48:11;;;;;;;3.20;2.60;;;;;;;;;;6194803;23;20392;-87
2024/03/13 14:50:56;;;;;;;2.90;2.70;;;;;;;;;;6208042;22;20431;-89
2024/03/13 14:53:50;;;;;;;4.23;2.83;;;;;;;;;;6260319;22;20493;-87
2024/03/13 14:57:03;;;;;;;3.10;2.63;;;;;;;;;;6256663;22;20463;-90
2024/03/13 15:00:33;;;;;;;2.40;2.20;;;;;;;;;;6229718;22;20403;-87
2024/03/13 15:03:29;;;;;;;;;;;;;;;;;;;;;
2024/03/13 15:06:40;;;;;;;5.17;2.33;;;;;;;;;;6275560;22;20423;-89
2024/03/13 15:09:32;;;;;;;2.53;2.00;;;;;;;;;;6252518;22;20603;-88
2024/03/13 15:12:16;;;;;;;2.53;2.27;;;;;;;;;;6252879;22;20399;-89
2024/03/13 15:15:09;;;;;;;2.87;2.67;;;;;;;;;;6259291;22;20399;-90
2024/03/13 15:18:04;;;;;;;4.50;2.77;;;;;;;;;;6255356;22;21225;-87
2024/03/13 15:20:46;;;;;;;5.03;2.63;;;;;;;;;;6252905;22;20802;-88
2024/03/13 15:26:54;;;;;;;3.53;2.20;;;;;;;;;;6152880;23;20503;-90
2024/03/13 15:29:42;;;;;;;4.57;3.43;;;;;;;;;;6152433;23;20509;-87
2024/03/13 15:32:32;;;;;;;4.23;2.40;;;;;;;;;;6162640;23;20429;-88
2024/03/13 15:35:14;;;;;;;3.47;2.83;;;;;;;;;;6162694;23;21138;-88
2024/03/13 15:38:16;;;;;;;2.00;1.67;;;;;;;;;;6156150;23;20542;-89
2024/03/13 15:41:04;;;;;;;2.00;1.90;;;;;;;;;;6135430;23;20398;-88
2024/03/13 15:43:54;;;;;;;2.23;1.80;;;;;;;;;;6152724;23;20415;-89
2024/03/13 15:46:37;;;;;;;1.87;1.60;;;;;;;;;;6146181;23;20494;-89
2024/03/13 15:49:40;;;;;;;1.80;1.47;;;;;;;;;;6145804;22;20443;-88
2024/03/13 15:52:35;;;;;;;1.40;1.30;;;;;;;;;;6252982;22;20664;-88
2024/03/13 16:01:53;;;;;;;2.33;1.30;;;;;;;;;;6261174;22;20390;-90
2024/03/13 16:04:37;;;;;;;2.37;1.63;;;;;;;;;;6257648;22;20396;-87
2024/03/13 16:07:43;;;;;;;2.80;1.70;;;;;;;;;;6266294;22;20431;-87
2024/03/13 16:10:42;;;;;;;1.77;1.13;;;;;;;;;;6294235;22;20569;-88
2024/03/13 16:13:37;;;;;;;2.20;1.47;;;;;;;;;;6282761;22;20426;-88
2024/03/13 16:16:28;;;;;;;;;;;;;;;;;;;;;
2024/03/13 16:19:55;;;;;;;1.57;1.10;;;;;;;;;;6279936;22;20515;-88
2024/03/13 16:22:46;;;;;;;1.53;1.50;;;;;;;;;;6259295;22;20415;-87
2024/03/13 16:28:31;;;;;;;2.20;2.03;;;;;;;;;;6274551;22;20393;-89
2024/03/13 16:31:34;;;;;;;1.97;1.87;;;;;;;;;;6278875;22;20435;-88
2024/03/13 16:34:45;;;;;;;2.17;1.73;;;;;;;;;;6270087;22;20482;-89
2024/03/13 16:37:34;;;;;;;3.00;1.90;;;;;;;;;;6255579;22;20415;-86
2024/03/13 16:43:22;;;;;;;1.97;1.57;;;;;;;;;;6158036;23;20422;-88
2024/03/13 16:49:26;;;;;;;3.27;1.90;;;;;;;;;;6268124;22;20399;-87
2024/03/13 16:52:22;;;;;;;4.20;1.70;;;;;;;;;;6262869;22;20398;-87
2024/03/13 16:55:22;;;;;;;1.63;1.53;;;;;;;;;;5178339;27;246825;-90
2024/03/13 16:58:08;;;;;;;2.40;1.67;;;;;;;;;;5178018;27;20463;-89
2024/03/13 17:00:47;;;;;;;2.10;1.90;;;;;;;;;;5166447;27;20435;-91
2024/03/13 17:03:34;;;;;;;2.83;2.20;;;;;;;;;;5174613;27;20465;-87
2024/03/13 17:06:09;;;;;;;1.70;1.53;;;;;;;;;;5170812;27;22492;-89
2024/03/13 17:08:55;;;;;;;2.43;2.20;;;;;;;;;;5171839;27;20459;-87
2024/03/13 17:11:42;;;;;;;2.93;2.20;;;;;;;;;;5159148;27;20436;-87
2024/03/13 17:14:30;;;;;;;;;;;;;;;;;;;;;
2024/03/13 17:17:02;;;;;;;1.87;1.77;;;;;;;;;;5169838;27;20467;-88
2024/03/13 17:19:31;;;;;;;2.87;2.07;;;;;;;;;;5155649;27;20455;-88
2024/03/13 17:21:59;;;;;;;4.50;1.70;;;;;;;;;;5162045;27;20447;-91
2024/03/13 17:24:33;;;;;;;2.60;2.03;;;;;;;;;;5157508;27;20444;-87
2024/03/13 17:27:07;;;;;;;1.60;1.50;;;;;;;;;;5156665;27;20466;-90
2024/03/13 17:29:39;;;;;;;1.70;1.60;;;;;;;;;;5142578;27;20446;-87
2024/03/13 17:32:17;;;;;;;2.10;1.63;;;;;;;;;;5152935;27;20927;-89
2024/03/13 17:34:52;;;;;;;2.60;1.70;;;;;;;;;;5151332;27;20474;-89
2024/03/13 17:37:36;;;;;;;1.67;1.20;;;;;;;;;;5156654;27;20495;-89
2024/03/13 17:40:11;;;;;;;1.50;1.40;;;;;;;;;;5156592;27;20469;-90
2024/03/13 17:42:47;;;;;;;1.93;1.67;;;;;;;;;;5148884;27;20490;-89
2024/03/13 17:45:22;;;;;;;2.43;1.90;;;;;;;;;;5161212;27;20526;-85
2024/03/13 17:48:06;;;;;;;2.70;1.47;;;;;;;;;;5136806;27;20480;-85
2024/03/13 17:50:45;;;;;;;3.00;1.77;;;;;;;;;;5158758;27;20443;-86
2024/03/13 18:00:25;;;;;;;3.10;1.90;;;;;;;;;;5172659;27;21466;-92
2024/03/13 18:03:05;;;;;;;1.97;1.80;;;;;;;;;;5164451;27;20447;-92
2024/03/13 18:05:35;;;;;;;2.13;1.80;;;;;;;;;;5363213;22;20544;-90
2024/03/13 18:11:40;;;;;;;1.73;1.63;;;;;;;;;;5108614;28;20526;-86
2024/03/13 18:14:18;;;;;;;2.00;1.43;;;;;;;;;;5111901;28;20813;-88
2024/03/13 18:17:00;;;;;;;2.07;1.77;;;;;;;;;;5090122;28;20461;-88
2024/03/13 18:19:47;;;;;;;2.30;2.10;;;;;;;;;;5095239;28;20462;-88
2024/03/13 18:22:25;;;;;;;2.83;1.90;;;;;;;;;;5110025;28;20454;-85
2024/03/13 18:25:09;;;;;;;2.40;1.90;;;;;;;;;;5109962;28;20526;-88
2024/03/13 18:27:44;;;;;;;4.10;2.30;;;;;;;;;;5094425;28;20513;-88
2024/03/13 18:30:33;;;;;;;4.10;2.27;;;;;;;;;;5081061;28;20439;-89
2024/03/13 18:33:14;;;;;;;2.17;1.90;;;;;;;;;;5111391;28;20614;-87
2024/03/13 18:41:09;;;;;;;3.00;2.00;;;;;;;;;;5062256;28;20946;-87
2024/03/13 18:43:50;;;;;;;3.50;2.20;;;;;;;;;;5056658;28;20445;-87
2024/03/13 18:46:26;;;;;;;4.07;2.07;;;;;;;;;;5062405;28;20467;-89
2024/03/13 18:49:01;;;;;;;2.37;1.93;;;;;;;;;;5069790;28;20457;-88
2024/03/13 18:52:17;;;;;;;3.40;2.60;;;;;;;;;;5039340;28;20479;-89
2024/03/13 18:54:51;;;;;;;2.93;2.23;;;;;;;;;;5043108;28;20483;-88
2024/03/13 18:57:42;;;;;;;1.80;1.63;;;;;;;;;;5045787;28;20894;-89
2024/03/13 19:00:35;;;;;;;2.30;2.10;;;;;;;;;;5050525;28;20482;-89
2024/03/13 19:03:05;;;;;;;2.27;1.70;;;;;;;;;;5051817;28;20457;-87
2024/03/13 19:05:33;;;;;;;2.30;2.10;;;;;;;;;;5047558;28;20454;-89
2024/03/13 19:08:13;;;;;;;5.30;2.70;;;;;;;;;;5035027;28;20469;-86
2024/03/13 19:10:44;;;;;;;3.00;2.07;;;;;;;;;;5032742;28;20467;-89
2024/03/13 19:13:17;;;;;;;2.60;2.40;;;;;;;;;;5038058;28;20449;-90
2024/03/13 19:15:51;;;;;;;3.17;2.57;;;;;;;;;;5057651;28;20479;-89
2024/03/13 19:18:43;;;;;;;2.63;2.20;;;;;;;;;;5038778;28;20503;-89
2024/03/13 19:21:16;;;;;;;2.77;2.13;;;;;;;;;;5060073;28;20436;-86
2024/03/13 19:23:49;;;;;;;2.53;2.33;;;;;;;;;;5041952;28;20820;-86
2024/03/13 19:26:17;;;;;;;2.83;2.10;;;;;;;;;;5062367;28;20460;-89
2024/03/13 19:28:52;;;;;;;3.53;2.10;;;;;;;;;;5048375;28;20499;-91
2024/03/13 19:31:30;;;;;;;2.80;2.07;;;;;;;;;;5051573;28;20459;-89
2024/03/13 19:34:04;;;;;;;2.70;2.47;;;;;;;;;;5045581;28;20515;-87
2024/03/13 19:36:40;;;;;;;2.73;2.50;;;;;;;;;;5041820;28;20587;-88
2024/03/13 19:39:23;;;;;;;4.57;2.30;;;;;;;;;;5061278;28;20464;-90
2024/03/13 19:42:05;;;;;;;3.50;2.60;;;;;;;;;;5058686;28;20455;-90
2024/03/13 19:44:44;;;;;;;3.00;1.80;;;;;;;;;;5041778;28;20452;-88
2024/03/13 19:47:19;;;;;;;3.90;2.37;;;;;;;;;;5043744;28;20506;-89
2024/03/13 19:49:47;;;;;;;2.50;2.13;;;;;;;;;;5052199;28;20468;-90
2024/03/13 19:52:18;;;;;;;2.67;2.27;;;;;;;;;;5058601;28;20432;-90
2024/03/13 19:55:11;;;;;;;3.83;2.80;;;;;;;;;;5055844;28;20490;-90
2024/03/13 19:57:45;;;;;;;2.80;2.60;;;;;;;;;;5040697;28;20490;-89
2024/03/13 20:00:16;;;;;;;2.37;2.10;;;;;;;;;;5042767;28;20952;-88
2024/03/13 20:02:53;;;;;;;3.80;2.67;;;;;;;;;;5044437;28;20460;-87
2024/03/13 20:05:31;;;;;;;2.63;2.43;;;;;;;;;;5057033;28;20451;-88
2024/03/13 20:08:02;;;;;;;4.43;2.80;;;;;;;;;;5070007;28;20463;-89
2024/03/13 20:10:38;;;;;;;3.93;2.70;;;;;;;;;;5064542;28;20483;-88
2024/03/13 20:13:10;;;;;;;7.70;3.00;;;;;;;;;;5058915;28;20484;-88
2024/03/13 20:15:44;;;;;;;2.77;2.53;;;;;;;;;;5061743;28;20489;-90
2024/03/13 20:18:15;;;;;;;3.00;2.63;;;;;;;;;;5059033;28;20536;-88
2024/03/13 20:20:58;;;;;;;;;;;;;;;;;;;;;
2024/03/13 20:23:44;;;;;;;3.27;2.97;;;;;;;;;;5052542;28;20854;-88
2024/03/13 20:26:17;;;;;;;4.40;3.10;;;;;;;;;;5060395;28;20483;-88
2024/03/13 20:28:52;;;;;;;3.70;2.90;;;;;;;;;;5054646;28;20539;-89
2024/03/13 20:31:20;;;;;;;4.37;2.97;;;;;;;;;;5037947;28;20460;-89
2024/03/13 20:33:53;;;;;;;3.10;2.80;;;;;;;;;;5033298;28;20967;-89
2024/03/13 20:36:26;;;;;;;2.83;2.63;;;;;;;;;;5037744;28;20495;-86
2024/03/13 20:39:02;;;;;;;3.57;3.27;;;;;;;;;;5038290;28;20471;-88
2024/03/13 20:41:30;;;;;;;3.30;2.93;;;;;;;;;;5054900;28;20460;-88
2024/03/13 20:44:10;;;;;;;3.73;3.03;;;;;;;;;;5032954;28;20456;-91
2024/03/13 20:46:50;;;;;;;3.03;2.83;;;;;;;;;;5053308;28;20481;-85
2024/03/13 20:49:28;;;;;;;3.70;3.07;;;;;;;;;;5040751;28;20451;-89
2024/03/13 20:52:03;;;;;;;2.70;2.50;;;;;;;;;;5042030;28;20457;-87
2024/03/13 20:54:47;;;;;;;3.10;2.80;;;;;;;;;;5059170;28;20567;-87
2024/03/13 20:57:19;;;;;;;5.83;3.23;;;;;;;;;;5042662;28;20913;-87
2024/03/13 21:00:03;;;;;;;3.43;3.13;;;;;;;;;;5053910;28;20437;-87
2024/03/13 21:02:42;;;;;;;5.20;3.40;;;;;;;;;;5032909;28;21235;-87
2024/03/13 21:05:30;;;;;;;3.80;3.40;;;;;;;;;;5021919;28;20447;-88
2024/03/13 21:08:00;;;;;;;3.23;2.47;;;;;;;;;;5037587;28;20513;-88
2024/03/13 21:10:34;;;;;;;3.53;3.20;;;;;;;;;;5043150;28;20492;-87
2024/03/13 21:13:06;;;;;;;3.20;2.80;;;;;;;;;;5037644;28;20471;-85
2024/03/13 21:15:38;;;;;;;3.13;2.80;;;;;;;;;;5025550;28;20587;-87
2024/03/13 21:18:59;;;;;;;3.03;2.80;;;;;;;;;;5059418;28;20448;-89
2024/03/13 21:21:11;;;;;;;4.80;3.80;;;;;;;;;;5051791;28;20556;-89